createdAt,value
2018-11-14T00:00:40.298Z,101071.57
2018-11-14T00:03:10.088Z,101072.93
2018-11-14T00:05:39.596Z,101071.24
2018-11-14T00:08:09.228Z,101074.78
2018-11-14T00:10:38.733Z,101070.72
2018-11-14T00:13:08.284Z,101076.14
2018-11-14T00:15:38.780Z,101069.69
2018-11-14T00:18:10.641Z,101068.00
2018-11-14T00:20:41.167Z,101061.22
2018-11-14T00:23:10.854Z,101052.59
2018-11-14T00:25:40.405Z,101051.86
2018-11-14T00:28:09.943Z,101047.26
2018-11-14T00:30:39.550Z,101053.84
2018-11-14T00:33:09.175Z,101046.00
2018-11-14T00:35:38.784Z,101043.29
2018-11-14T00:38:08.275Z,101037.86
2018-11-14T00:40:37.856Z,101031.08
2018-11-14T00:43:07.535Z,101031.41
2018-11-14T00:45:37.094Z,101022.41
2018-11-14T00:48:06.816Z,101019.20
2018-11-14T00:50:36.304Z,101013.44
2018-11-14T00:53:05.986Z,101009.38
2018-11-14T00:55:35.514Z,101014.50
2018-11-14T00:58:05.227Z,101009.08
2018-11-14T01:00:34.763Z,101007.72
2018-11-14T01:03:04.352Z,101006.66
2018-11-14T01:05:33.878Z,101004.48
2018-11-14T01:08:03.410Z,101010.44
2018-11-14T01:10:33.037Z,101008.45
2018-11-14T01:13:02.650Z,101005.41
2018-11-14T01:15:32.157Z,100998.52
2018-11-14T01:18:01.728Z,100990.28
2018-11-14T01:20:31.323Z,100986.95
2018-11-14T01:23:00.903Z,100987.97
2018-11-14T01:25:30.463Z,100987.05
2018-11-14T01:27:59.975Z,100979.64
2018-11-14T01:30:29.545Z,100981.39
2018-11-14T01:32:59.051Z,100970.97
2018-11-14T01:35:28.578Z,100965.22
2018-11-14T01:37:58.139Z,100954.90
2018-11-14T01:40:27.692Z,100832.63
2018-11-14T01:42:57.990Z,100948.31
2018-11-14T01:45:27.526Z,100948.64
2018-11-14T01:47:57.064Z,100946.47
2018-11-14T01:50:26.569Z,100940.52
2018-11-14T01:52:56.091Z,100940.18
2018-11-14T01:55:25.665Z,100938.83
2018-11-14T01:57:55.225Z,100942.89
2018-11-14T02:00:25.582Z,100945.31
2018-11-14T02:02:55.183Z,100953.74
2018-11-14T02:05:24.737Z,100945.84
2018-11-14T02:07:54.284Z,100941.97
2018-11-14T02:10:23.835Z,100937.27
2018-11-14T02:12:53.416Z,100940.52
2018-11-14T02:15:23.919Z,100944.05
2018-11-14T02:17:53.866Z,100941.87
2018-11-14T02:20:23.438Z,100946.77
2018-11-14T02:22:52.963Z,100943.72
2018-11-14T02:25:22.555Z,100944.25
2018-11-14T02:27:52.727Z,100933.60
2018-11-14T02:30:24.009Z,100940.38
2018-11-14T02:32:53.563Z,100938.53
2018-11-14T02:35:23.181Z,100939.55
2018-11-14T02:37:52.731Z,100929.53
2018-11-14T02:40:22.945Z,100933.94
2018-11-14T02:42:52.515Z,100931.52
2018-11-14T02:45:22.064Z,100928.61
2018-11-14T02:47:51.612Z,100924.34
2018-11-14T02:50:21.170Z,100924.64
2018-11-14T02:52:50.682Z,100929.04
2018-11-14T02:55:21.211Z,100922.78
2018-11-14T02:57:50.796Z,100921.20
2018-11-14T03:00:21.491Z,100916.83
2018-11-14T03:02:51.136Z,100917.86
2018-11-14T03:05:20.747Z,100918.92
2018-11-14T03:07:50.259Z,100921.63
2018-11-14T03:10:21.096Z,100918.09
2018-11-14T03:12:50.664Z,100924.02
2018-11-14T03:15:21.575Z,100919.94
2018-11-14T03:17:52.122Z,100916.94
2018-11-14T03:20:22.479Z,100915.05
2018-11-14T03:22:52.000Z,100919.94
2018-11-14T03:25:21.575Z,100915.37
2018-11-14T03:27:51.122Z,100927.05
2018-11-14T03:30:20.666Z,100932.77
2018-11-14T03:32:50.216Z,100935.19
2018-11-14T03:35:19.775Z,100932.48
2018-11-14T03:37:49.352Z,100932.77
2018-11-14T03:40:18.914Z,100934.12
2018-11-14T03:42:48.406Z,100933.40
2018-11-14T03:45:17.955Z,100931.55
2018-11-14T03:47:47.606Z,100926.75
2018-11-14T03:50:17.764Z,100917.98
2018-11-14T03:52:47.316Z,100919.64
2018-11-14T03:55:16.845Z,100912.56
2018-11-14T03:57:46.392Z,100916.50
2018-11-14T04:00:16.742Z,100919.45
2018-11-14T04:02:47.051Z,100916.11
2018-11-14T04:05:16.701Z,100909.83
2018-11-14T04:07:46.286Z,100910.88
2018-11-14T04:10:15.935Z,100913.89
2018-11-14T04:12:45.483Z,100808.06
2018-11-14T04:15:15.741Z,100905.98
2018-11-14T04:17:45.316Z,100908.70
2018-11-14T04:20:15.962Z,100898.68
2018-11-14T04:22:46.096Z,100895.44
2018-11-14T04:25:18.841Z,100902.42
2018-11-14T04:27:48.860Z,100898.35
2018-11-14T04:30:22.656Z,100896.70
2018-11-14T04:32:52.246Z,100897.00
2018-11-14T04:35:22.236Z,100895.34
2018-11-14T04:37:51.825Z,100888.23
2018-11-14T04:40:22.667Z,100894.19
2018-11-14T04:42:52.340Z,100891.18
2018-11-14T04:45:24.020Z,100888.47
2018-11-14T04:47:53.797Z,100894.62
2018-11-14T04:50:24.912Z,100893.56
2018-11-14T04:52:54.782Z,100886.16
2018-11-14T04:55:25.187Z,100882.91
2018-11-14T04:57:54.795Z,100877.83
2018-11-14T05:00:25.347Z,100871.87
2018-11-14T05:02:54.909Z,100877.00
2018-11-14T05:05:25.034Z,100885.63
2018-11-14T05:07:54.551Z,100882.62
2018-11-14T05:10:25.327Z,100870.95
2018-11-14T05:12:54.907Z,100872.83
2018-11-14T05:15:25.532Z,100882.42
2018-11-14T05:17:55.325Z,100876.66
2018-11-14T05:20:24.882Z,100874.78
2018-11-14T05:22:54.524Z,100880.83
2018-11-14T05:25:24.055Z,100882.19
2018-11-14T05:27:53.720Z,100882.52
2018-11-14T05:30:24.524Z,100891.27
2018-11-14T05:32:54.991Z,100888.03
2018-11-14T05:35:24.536Z,100880.43
2018-11-14T05:37:54.167Z,100895.34
2018-11-14T05:40:23.863Z,100888.36
2018-11-14T05:42:54.494Z,100892.20
2018-11-14T05:45:26.335Z,100897.42
2018-11-14T05:47:55.956Z,100899.41
2018-11-14T05:50:25.530Z,100897.31
2018-11-14T05:52:58.015Z,100896.39
2018-11-14T05:55:30.475Z,100896.05
2018-11-14T05:58:00.048Z,100902.43
2018-11-14T06:00:31.296Z,100903.78
2018-11-14T06:03:03.914Z,100909.42
2018-11-14T06:05:36.670Z,100910.67
2018-11-14T06:08:08.896Z,100916.29
2018-11-14T06:10:42.304Z,100917.54
2018-11-14T06:13:30.782Z,100918.78
2018-11-14T06:16:10.038Z,100911.16
2018-11-14T06:18:58.301Z,100915.41
2018-11-14T06:21:46.088Z,100904.27
2018-11-14T06:24:35.935Z,100898.19
2018-11-14T06:27:27.120Z,100902.48
2018-11-14T06:33:36.372Z,100900.51
2018-11-14T06:36:29.735Z,100897.47
2018-11-14T06:45:24.680Z,100901.13
2018-11-14T06:50:55.045Z,100897.53
2018-11-14T06:53:24.775Z,100900.16
2018-11-14T06:55:54.396Z,100894.52
2018-11-14T06:58:24.399Z,100897.14
2018-11-14T07:00:54.039Z,100900.12
2018-11-14T07:03:23.691Z,100904.09
2018-11-14T07:05:54.330Z,100907.55
2018-11-14T07:08:23.944Z,100902.11
2018-11-14T07:10:53.628Z,100903.88
2018-11-14T07:13:23.239Z,100897.83
2018-11-14T07:15:52.877Z,100905.86
2018-11-14T07:18:22.364Z,100898.45
2018-11-14T07:20:52.199Z,100899.92
2018-11-14T07:23:21.746Z,100900.02
2018-11-14T07:25:51.335Z,100893.64
2018-11-14T07:28:21.011Z,100894.67
2018-11-14T07:30:50.563Z,100893.48
2018-11-14T07:33:20.195Z,100896.50
2018-11-14T07:35:49.735Z,100899.05
2018-11-14T07:38:40.742Z,100903.50
2018-11-14T07:41:11.821Z,100895.92
2018-11-14T07:43:41.815Z,100895.67
2018-11-14T07:46:12.064Z,100888.48
2018-11-14T07:48:41.957Z,100889.45
2018-11-14T07:51:11.556Z,100890.91
2018-11-14T07:53:43.088Z,100888.33
2018-11-14T07:56:13.940Z,100889.52
2018-11-14T07:58:44.093Z,100885.77
2018-11-14T08:01:13.691Z,100880.62
2018-11-14T08:03:43.375Z,100872.70
2018-11-14T08:06:12.969Z,100868.70
2018-11-14T08:08:42.900Z,100876.72
2018-11-14T08:11:12.427Z,100875.50
2018-11-14T08:13:43.516Z,100877.79
2018-11-14T08:16:13.150Z,100872.73
2018-11-14T08:18:42.857Z,100883.88
2018-11-14T08:21:12.456Z,100883.27
2018-11-14T08:23:42.109Z,100871.23
2018-11-14T08:26:11.685Z,100864.95
2018-11-14T08:28:41.263Z,100872.36
2018-11-14T08:31:10.804Z,100879.19
2018-11-14T08:33:40.395Z,100886.20
2018-11-14T08:36:10.151Z,100889.98
2018-11-14T08:38:39.745Z,100887.92
2018-11-14T08:41:09.373Z,100881.28
2018-11-14T08:43:38.971Z,100869.47
2018-11-14T08:46:08.785Z,100878.53
2018-11-14T08:48:38.326Z,100882.17
2018-11-14T08:51:08.086Z,100870.52
2018-11-14T08:53:37.673Z,100864.05
2018-11-14T08:56:07.726Z,100861.80
2018-11-14T08:58:37.342Z,100851.28
2018-11-14T09:01:07.035Z,100858.22
2018-11-14T09:03:36.702Z,100862.48
2018-11-14T09:06:06.361Z,100856.88
2018-11-14T09:08:35.862Z,100864.35
2018-11-14T09:11:05.933Z,100858.52
2018-11-14T09:13:36.055Z,100864.09
2018-11-14T09:16:05.843Z,100855.84
2018-11-14T09:18:35.496Z,100834.83
2018-11-14T09:21:05.702Z,100848.94
2018-11-14T09:23:35.400Z,100847.58
2018-11-14T09:26:05.044Z,100848.48
2018-11-14T09:28:34.585Z,100846.64
2018-11-14T09:31:04.135Z,100845.77
2018-11-14T09:33:33.796Z,100841.88
2018-11-14T09:36:03.363Z,100845.86
2018-11-14T09:38:32.988Z,100850.78
2018-11-14T09:41:02.614Z,100845.09
2018-11-14T09:43:32.221Z,100851.77
2018-11-14T09:46:01.819Z,100845.55
2018-11-14T09:48:31.650Z,100838.03
2018-11-14T09:51:01.186Z,100727.27
2018-11-14T09:53:30.839Z,100834.20
2018-11-14T09:56:00.394Z,100832.40
2018-11-14T09:58:30.009Z,100821.44
2018-11-14T10:00:59.659Z,100818.34
2018-11-14T10:03:29.248Z,100802.13
2018-11-14T10:05:58.846Z,100805.11
2018-11-14T10:08:28.452Z,100805.05
2018-11-14T10:10:58.092Z,100815.19
2018-11-14T10:13:27.596Z,100815.85
2018-11-14T10:15:57.205Z,100810.39
2018-11-14T10:18:26.759Z,100806.14
2018-11-14T10:20:56.329Z,100802.94
2018-11-14T10:23:25.844Z,100785.44
2018-11-14T10:25:55.466Z,100774.26
2018-11-14T10:28:25.031Z,100763.04
2018-11-14T10:30:54.689Z,100762.53
2018-11-14T10:33:24.200Z,100755.13
2018-11-14T10:35:53.803Z,100753.38
2018-11-14T10:38:23.312Z,100752.56
2018-11-14T10:40:52.869Z,100753.01
2018-11-14T10:43:22.463Z,100751.96
2018-11-14T10:45:52.094Z,100745.15
2018-11-14T10:48:21.777Z,100737.26
2018-11-14T10:50:51.357Z,100738.34
2018-11-14T10:53:20.971Z,100734.79
2018-11-14T10:55:50.635Z,100736.21
2018-11-14T10:58:20.242Z,100727.27
2018-11-14T11:00:54.823Z,100722.59
2018-11-14T11:03:29.494Z,100712.24
2018-11-14T11:06:16.934Z,100706.56
2018-11-14T11:08:51.544Z,100702.93
2018-11-14T11:11:26.096Z,100701.72
2018-11-14T11:14:11.483Z,100694.42
2018-11-14T11:16:47.363Z,100689.03
2018-11-14T11:19:18.201Z,100689.94
2018-11-14T11:21:48.026Z,100685.30
2018-11-14T11:24:19.087Z,100685.91
2018-11-14T11:26:48.719Z,100675.77
2018-11-14T11:29:18.379Z,100672.22
2018-11-14T11:31:48.084Z,100671.45
2018-11-14T11:34:17.731Z,100671.28
2018-11-14T11:36:47.247Z,100667.28
2018-11-14T11:39:18.028Z,100573.59
2018-11-14T11:41:47.951Z,100660.61
2018-11-14T11:44:17.570Z,100659.95
2018-11-14T11:46:47.099Z,100661.09
2018-11-14T11:49:16.699Z,100658.20
2018-11-14T11:51:46.247Z,100655.64
2018-11-14T11:54:15.890Z,100649.83
2018-11-14T11:56:45.506Z,100650.42
2018-11-14T11:59:15.145Z,100648.29
2018-11-14T12:01:45.144Z,100649.47
2018-11-14T12:04:14.700Z,100649.33
2018-11-14T12:06:44.247Z,100638.80
2018-11-14T12:09:13.779Z,100636.66
2018-11-14T12:11:43.389Z,100628.35
2018-11-14T12:14:12.974Z,100628.23
2018-11-14T12:16:42.655Z,100628.48
2018-11-14T12:19:12.300Z,100624.39
2018-11-14T12:21:41.877Z,100621.18
2018-11-14T12:24:11.416Z,100626.31
2018-11-14T12:26:40.971Z,100621.18
2018-11-14T12:29:10.561Z,100613.41
2018-11-14T12:31:40.187Z,100618.14
2018-11-14T12:34:09.780Z,100614.36
2018-11-14T12:36:39.450Z,100601.02
2018-11-14T12:39:09.928Z,100605.41
2018-11-14T12:41:39.559Z,100605.69
2018-11-14T12:44:09.278Z,100608.14
2018-11-14T12:46:38.909Z,100598.01
2018-11-14T12:49:08.489Z,100599.65
2018-11-14T12:51:38.119Z,100603.73
2018-11-14T12:54:07.728Z,100606.73
2018-11-14T12:56:37.523Z,100596.33
2018-11-14T12:59:07.917Z,100602.59
2018-11-14T13:01:37.689Z,100601.23
2018-11-14T13:04:07.285Z,100597.23
2018-11-14T13:06:36.913Z,100596.87
2018-11-14T13:09:08.430Z,100487.06
2018-11-14T13:11:38.095Z,100592.78
2018-11-14T13:14:07.886Z,100588.16
2018-11-14T13:16:37.432Z,100587.56
2018-11-14T13:19:07.215Z,100592.42
2018-11-14T13:21:36.808Z,100590.23
2018-11-14T13:24:06.410Z,100589.92
2018-11-14T13:26:36.018Z,100582.83
2018-11-14T13:29:05.657Z,100580.02
2018-11-14T13:31:35.271Z,100581.33
2018-11-14T13:34:05.179Z,100581.23
2018-11-14T13:36:34.942Z,100579.55
2018-11-14T13:39:06.271Z,100581.99
2018-11-14T13:41:35.830Z,100578.36
2018-11-14T13:44:05.397Z,100577.77
2018-11-14T13:46:35.272Z,100571.45
2018-11-14T13:49:05.025Z,100576.58
2018-11-14T13:51:34.574Z,100574.34
2018-11-14T13:54:04.144Z,100573.98
2018-11-14T13:56:33.757Z,100571.74
2018-11-14T13:59:03.908Z,100566.75
2018-11-14T14:01:33.516Z,100566.16
2018-11-14T14:04:03.388Z,100564.73
2018-11-14T14:06:33.336Z,100562.78
2018-11-14T14:09:02.943Z,100561.13
2018-11-14T14:11:32.560Z,100549.45
2018-11-14T14:14:07.102Z,100557.28
2018-11-14T14:16:36.804Z,100554.23
2018-11-14T14:19:06.906Z,100558.58
2018-11-14T14:21:36.452Z,100557.45
2018-11-14T14:24:06.238Z,100557.17
2018-11-14T14:26:36.431Z,100556.63
2018-11-14T14:29:06.247Z,100565.84
2018-11-14T14:31:35.985Z,100568.56
2018-11-14T14:34:05.835Z,100562.84
2018-11-14T14:36:35.550Z,100568.28
2018-11-14T14:39:07.855Z,100569.33
2018-11-14T14:41:37.480Z,100558.92
2018-11-14T14:44:07.243Z,100568.73
2018-11-14T14:46:36.968Z,100567.09
2018-11-14T14:49:07.493Z,100573.91
2018-11-14T14:51:39.168Z,100573.59
2018-11-14T14:54:10.062Z,100573.84
2018-11-14T14:56:40.460Z,100572.70
2018-11-14T14:59:10.921Z,100577.33
2018-11-14T15:01:42.187Z,100578.92
2018-11-14T15:04:13.884Z,100574.23
2018-11-14T15:06:44.527Z,100576.65
2018-11-14T15:09:25.797Z,100578.00
2018-11-14T15:11:55.601Z,100580.45
2018-11-14T15:14:28.038Z,100575.17
2018-11-14T15:16:59.173Z,100580.23
2018-11-14T15:19:29.316Z,100472.61
2018-11-14T15:22:05.178Z,100577.41
2018-11-14T15:24:35.005Z,100577.62
2018-11-14T15:27:05.168Z,100582.47
2018-11-14T15:29:34.902Z,100585.13
2018-11-14T15:32:04.487Z,100586.43
2018-11-14T15:34:34.026Z,100584.47
2018-11-14T15:37:03.591Z,100585.52
2018-11-14T15:39:33.112Z,100587.89
2018-11-14T15:42:02.711Z,100587.80
2018-11-14T15:44:32.280Z,100590.30
2018-11-14T15:47:01.875Z,100586.69
2018-11-14T15:49:31.423Z,100594.86
2018-11-14T15:52:01.085Z,100589.09
2018-11-14T15:54:31.246Z,100589.80
2018-11-14T15:57:00.801Z,100588.38
2018-11-14T15:59:30.379Z,100594.86
2018-11-14T16:01:59.969Z,100603.84
2018-11-14T16:04:29.547Z,100598.66
2018-11-14T16:06:59.120Z,100601.88
2018-11-14T16:09:29.401Z,100608.08
2018-11-14T16:11:58.997Z,100606.98
2018-11-14T16:14:28.554Z,100612.41
2018-11-14T16:16:58.111Z,100612.64
2018-11-14T16:19:27.702Z,100620.80
2018-11-14T16:21:57.284Z,100612.34
2018-11-14T16:24:26.846Z,100615.83
2018-11-14T16:26:56.418Z,100612.80
2018-11-14T16:29:25.912Z,100607.06
2018-11-14T16:31:55.459Z,100612.70
2018-11-14T16:34:25.022Z,100614.05
2018-11-14T16:36:54.534Z,100615.09
2018-11-14T16:39:24.162Z,100617.82
2018-11-14T16:41:53.710Z,100619.43
2018-11-14T16:44:23.342Z,100623.52
2018-11-14T16:46:52.902Z,100622.15
2018-11-14T16:49:22.477Z,100621.83
2018-11-14T16:51:53.602Z,100628.63
2018-11-14T16:54:24.706Z,100630.00
2018-11-14T16:56:54.752Z,100631.35
2018-11-14T16:59:24.290Z,100629.70
2018-11-14T17:01:53.846Z,100630.00
2018-11-14T17:04:23.460Z,100634.08
2018-11-14T17:06:53.069Z,100636.80
2018-11-14T17:09:22.593Z,100638.69
2018-11-14T17:11:52.172Z,100638.16
2018-11-14T17:14:21.835Z,100644.41
2018-11-14T17:16:51.391Z,100649.03
2018-11-14T17:19:21.014Z,100643.59
2018-11-14T17:21:50.557Z,100640.87
2018-11-14T17:24:20.110Z,100638.16
2018-11-14T17:26:49.660Z,100634.90
2018-11-14T17:29:19.195Z,100630.00
2018-11-14T17:31:48.767Z,100624.55
2018-11-14T17:34:18.352Z,100619.87
2018-11-14T17:36:47.865Z,100614.97
2018-11-14T17:39:17.421Z,100608.92
2018-11-14T17:41:47.083Z,100608.39
2018-11-14T17:44:16.524Z,100610.06
2018-11-14T17:46:46.077Z,100600.98
2018-11-14T17:49:16.552Z,100606.20
2018-11-14T17:51:46.283Z,100595.55
2018-11-14T17:54:16.144Z,100592.29
2018-11-14T17:56:45.676Z,100604.24
2018-11-14T17:59:15.268Z,100606.14
2018-11-14T18:01:44.854Z,100604.24
2018-11-14T18:04:14.376Z,100603.42
2018-11-14T18:06:43.947Z,100606.42
2018-11-14T18:09:14.626Z,100606.14
2018-11-14T18:11:44.228Z,100608.32
2018-11-14T18:14:13.864Z,100610.22
2018-11-14T18:16:43.400Z,100611.58
2018-11-14T18:19:12.984Z,100609.68
2018-11-14T18:21:42.598Z,100611.58
2018-11-14T18:24:12.137Z,100608.86
2018-11-14T18:26:41.676Z,100608.55
2018-11-14T18:29:11.283Z,100605.22
2018-11-14T18:31:40.990Z,100604.62
2018-11-14T18:34:10.562Z,100609.77
2018-11-14T18:36:40.124Z,100607.05
2018-11-14T18:39:12.099Z,100616.56
2018-11-14T18:41:41.658Z,100612.48
2018-11-14T18:44:11.150Z,100617.10
2018-11-14T18:46:40.719Z,100617.61
2018-11-14T18:49:10.293Z,100617.33
2018-11-14T18:51:39.822Z,100615.36
2018-11-14T18:54:09.362Z,100627.06
2018-11-14T18:56:38.918Z,100630.31
2018-11-14T18:59:08.491Z,100626.23
2018-11-14T19:01:38.097Z,100619.38
2018-11-14T19:04:07.617Z,100619.38
2018-11-14T19:06:37.397Z,100615.51
2018-11-14T19:09:09.198Z,100619.05
2018-11-14T19:11:39.351Z,100611.12
2018-11-14T19:14:08.883Z,100603.72
2018-11-14T19:16:38.669Z,100601.84
2018-11-14T19:19:08.511Z,100607.19
2018-11-14T19:21:38.052Z,100606.08
2018-11-14T19:24:07.559Z,100598.14
2018-11-14T19:26:37.095Z,100601.61
2018-11-14T19:29:06.633Z,100597.22
2018-11-14T19:31:36.195Z,100592.03
2018-11-14T19:34:06.162Z,100594.14
2018-11-14T19:36:35.747Z,100598.15
2018-11-14T19:39:07.647Z,100605.70
2018-11-14T19:41:37.206Z,100601.52
2018-11-14T19:44:06.907Z,100597.70
2018-11-14T19:46:36.464Z,100606.75
2018-11-14T19:49:06.072Z,100598.74
2018-11-14T19:51:35.630Z,100604.33
2018-11-14T19:54:05.358Z,100603.39
2018-11-14T19:56:34.889Z,100597.06
2018-11-14T19:59:04.443Z,100597.82
2018-11-14T20:01:33.992Z,100603.25
2018-11-14T20:04:03.654Z,100603.18
2018-11-14T20:06:33.236Z,100606.65
2018-11-14T20:09:02.809Z,100569.26
2018-11-14T20:11:32.367Z,100597.36
2018-11-14T20:14:01.985Z,100600.08
2018-11-14T20:16:31.528Z,100593.20
2018-11-14T20:19:01.085Z,100590.42
2018-11-14T20:21:30.650Z,100587.09
2018-11-14T20:24:00.198Z,100587.38
2018-11-14T20:26:29.742Z,100585.73
2018-11-14T20:28:59.276Z,100592.53
2018-11-14T20:31:29.046Z,100586.77
2018-11-14T20:33:58.529Z,100586.23
2018-11-14T20:36:28.136Z,100577.48
2018-11-14T20:38:57.643Z,100569.58
2018-11-14T20:41:27.287Z,100565.79
2018-11-14T20:43:56.894Z,100563.08
2018-11-14T20:46:26.386Z,100568.37
2018-11-14T20:48:55.969Z,100566.26
2018-11-14T20:51:25.577Z,100568.37
2018-11-14T20:53:55.105Z,100567.62
2018-11-14T20:56:24.681Z,100564.05
2018-11-14T20:58:54.329Z,100567.62
2018-11-14T21:01:23.954Z,100558.11
2018-11-14T21:03:53.456Z,100555.14
2018-11-14T21:06:22.982Z,100557.50
2018-11-14T21:08:52.531Z,100547.39
2018-11-14T21:11:22.068Z,100536.06
2018-11-14T21:13:51.587Z,100530.70
2018-11-14T21:16:21.255Z,100536.98
2018-11-14T21:18:50.778Z,100528.69
2018-11-14T21:21:20.274Z,100527.16
2018-11-14T21:23:49.813Z,100522.66
2018-11-14T21:26:19.350Z,100521.14
2018-11-14T21:28:48.949Z,100519.93
2018-11-14T21:31:18.493Z,100518.86
2018-11-14T21:33:48.052Z,100517.34
2018-11-14T21:36:17.560Z,100515.98
2018-11-14T21:38:47.191Z,100514.88
2018-11-14T21:41:16.706Z,100514.95
2018-11-14T21:43:46.270Z,100507.23
2018-11-14T21:46:15.769Z,100511.48
2018-11-14T21:48:45.412Z,100501.97
2018-11-14T21:51:14.944Z,100507.69
2018-11-14T21:53:44.497Z,100507.63
2018-11-14T21:56:14.027Z,100500.77
2018-11-14T21:58:43.651Z,100500.55
2018-11-14T22:01:13.160Z,100496.82
2018-11-14T22:03:42.704Z,100490.63
2018-11-14T22:06:12.280Z,100496.39
2018-11-14T22:08:41.783Z,100490.73
2018-11-14T22:11:11.309Z,100490.86
2018-11-14T22:13:40.854Z,100491.69
2018-11-14T22:16:10.378Z,100483.85
2018-11-14T22:18:39.951Z,100489.57
2018-11-14T22:21:09.549Z,100487.92
2018-11-14T22:23:39.068Z,100482.17
2018-11-14T22:26:08.603Z,100477.05
2018-11-14T22:28:38.195Z,100467.09
2018-11-14T22:31:07.691Z,100465.73
2018-11-14T22:33:37.219Z,100458.80
2018-11-14T22:36:06.720Z,100450.57
2018-11-14T22:38:36.258Z,100451.45
2018-11-14T22:41:06.225Z,100451.86
2018-11-14T22:43:35.804Z,100448.45
2018-11-14T22:46:05.398Z,100450.19
2018-11-14T22:48:34.958Z,100444.59
2018-11-14T22:51:04.530Z,100453.81
2018-11-14T22:53:34.066Z,100450.03
2018-11-14T22:56:03.622Z,100451.64
2018-11-14T22:58:33.138Z,100445.52
2018-11-14T23:01:03.669Z,100442.33
2018-11-14T23:03:33.226Z,100433.67
2018-11-14T23:06:02.840Z,100443.18
2018-11-14T23:08:32.390Z,100438.09
2018-11-14T23:11:01.908Z,100425.11
2018-11-14T23:13:31.519Z,100433.41
2018-11-14T23:16:01.068Z,100426.02
2018-11-14T23:18:30.639Z,100430.57
2018-11-14T23:21:00.180Z,100422.58
2018-11-14T23:23:29.765Z,100423.33
2018-11-14T23:25:59.335Z,100422.88
2018-11-14T23:28:28.828Z,100424.84
2018-11-14T23:30:58.364Z,100428.45
2018-11-14T23:33:27.915Z,100433.13
2018-11-14T23:35:57.510Z,100423.17
2018-11-14T23:38:27.046Z,100424.22
2018-11-14T23:40:56.551Z,100423.30
2018-11-14T23:43:26.107Z,100421.95
2018-11-14T23:45:55.626Z,100416.83
2018-11-14T23:48:25.263Z,100409.72
2018-11-14T23:50:54.878Z,100409.97
2018-11-14T23:53:24.365Z,100404.88
2018-11-14T23:55:53.931Z,100399.92
2018-11-14T23:58:23.448Z,100394.71
